Time;durP1;ratioP1;P1;durP2;ratioP2;P2;SDS_P1;SDS_P2;PMS_P1;PMS_P2;Temp;Humidity;BMP_temperature;BMP_pressure;BME280_temperature;BME280_humidity;BME280_pressure;Samples;Min_cycle;Max_cycle;Signal;HPM_P1;HPM_P2
2022/09/19 00:01:13;;;;;;;2.63;1.58;;;;;;;17.81;50.30;101574.53;4991210;28;20046;-64
2022/09/19 00:03:41;;;;;;;1.45;0.70;;;;;;;17.79;51.03;101567.56;4990569;28;20034;-65
2022/09/19 00:06:08;;;;;;;2.20;0.85;;;;;;;17.80;50.10;101575.56;4990373;28;20090;-65
2022/09/19 00:08:34;;;;;;;4.85;1.08;;;;;;;17.80;51.09;101580.13;4991115;28;20023;-64
2022/09/19 00:11:02;;;;;;;2.72;0.60;;;;;;;17.76;49.97;101571.44;4974312;28;20057;-64
2022/09/19 00:13:29;;;;;;;2.22;1.00;;;;;;;17.79;50.55;101576.56;4974008;28;20039;-64
2022/09/19 00:15:55;;;;;;;3.83;1.15;;;;;;;17.77;49.99;101581.28;4990071;28;20099;-64
2022/09/19 00:18:20;;;;;;;5.10;1.17;;;;;;;17.77;50.84;101575.03;4975009;28;20098;-64
2022/09/19 00:20:47;;;;;;;1.73;0.80;;;;;;;17.76;50.64;101579.59;4991047;28;20023;-65
2022/09/19 00:26:01;;;;;;;3.90;1.15;;;;;;;17.69;50.13;101573.09;4990789;28;20033;-64
2022/09/19 00:28:27;;;;;;;1.42;1.00;;;;;;;17.67;50.87;101575.09;4990183;28;20049;-65
2022/09/19 00:30:56;;;;;;;2.78;0.80;;;;;;;17.65;49.97;101577.13;4973833;28;20027;-64
2022/09/19 00:33:27;;;;;;;4.20;1.05;;;;;;;17.62;50.69;101582.84;4989074;28;20058;-64
2022/09/19 00:35:54;;;;;;;2.22;0.95;;;;;;;17.62;50.49;101582.00;4990547;28;20027;-64
2022/09/19 00:38:29;;;;;;;6.30;0.98;;;;;;;17.58;50.71;101573.34;4990004;28;20047;-64
2022/09/19 00:40:56;;;;;;;5.47;1.35;;;;;;;17.54;50.21;101574.66;4990012;28;20073;-65
2022/09/19 00:43:25;;;;;;;4.85;1.02;;;;;;;17.56;50.07;101583.47;4974230;28;20034;-65
2022/09/19 00:45:50;;;;;;;2.83;1.20;;;;;;;17.55;50.30;101580.94;4989537;28;20058;-65
2022/09/19 00:48:17;;;;;;;6.40;1.17;;;;;;;17.54;49.73;101585.50;4989798;28;20026;-64
2022/09/19 00:50:44;;;;;;;8.93;1.20;;;;;;;17.52;49.99;101587.47;4973189;28;20027;-65
2022/09/19 00:53:13;;;;;;;1.38;0.95;;;;;;;17.47;50.29;101573.56;4989257;28;20031;-64
2022/09/19 00:55:40;;;;;;;1.83;1.17;;;;;;;17.49;51.14;101582.38;4989234;28;20046;-64
2022/09/19 00:58:33;;;;;;;9.80;1.77;;;;;;;17.46;50.77;101577.25;4989249;28;20034;-64
2022/09/19 01:00:59;;;;;;;;;;;;;;;17.47;49.81;101573.56;4970792;28;20508;-64
2022/09/19 01:03:25;;;;;;;3.83;1.00;;;;;;;17.46;49.93;101585.38;4988945;28;19961;-64
2022/09/19 01:05:56;;;;;;;9.48;0.98;;;;;;;17.46;49.44;101588.09;4988631;28;20038;-64
2022/09/19 01:08:21;;;;;;;1.63;1.40;;;;;;;17.46;50.89;101577.25;4989390;28;20362;-64
2022/09/19 01:11:29;;;;;;;4.25;1.42;;;;;;;17.44;50.18;101585.56;4990670;28;20073;-64
2022/09/19 01:14:02;;;;;;;3.42;1.33;;;;;;;17.43;50.53;101583.00;4934037;29;20394;-65
2022/09/19 01:16:41;;;;;;;2.25;1.02;;;;;;;17.41;50.73;101587.72;4933599;29;20165;-64
2022/09/19 01:19:15;;;;;;;8.68;2.22;;;;;;;17.42;50.52;101592.09;4932882;29;20070;-64
2022/09/19 01:21:52;;;;;;;5.88;1.17;;;;;;;17.41;50.12;101590.44;4948743;29;20044;-64
2022/09/19 01:25:02;;;;;;;7.50;1.60;;;;;;;17.36;49.42;101593.56;4948431;29;20537;-65
2022/09/19 01:27:51;;;;;;;5.93;1.73;;;;;;;17.30;50.43;101593.38;4891452;29;20048;-64
2022/09/19 01:30:16;;;;;;;3.92;1.85;;;;;;;17.33;50.69;101596.63;4891764;29;20071;-64
2022/09/19 01:32:51;;;;;;;3.90;1.92;;;;;;;17.32;49.54;101604.88;4875764;29;20041;-65
2022/09/19 01:35:22;;;;;;;5.78;1.55;;;;;;;17.29;50.02;101597.91;4875899;29;20064;-65
2022/09/19 01:37:53;;;;;;;2.78;1.60;;;;;;;17.28;50.14;101603.50;4891698;29;20047;-64
2022/09/19 01:40:21;;;;;;;6.63;2.00;;;;;;;17.30;49.82;101605.06;4891035;29;20033;-63
2022/09/19 01:42:55;;;;;;;2.85;1.58;;;;;;;17.29;50.60;101613.31;4876029;29;20029;-65
2022/09/19 01:45:23;;;;;;;2.72;1.48;;;;;;;17.24;50.10;101604.81;4875329;29;20057;-65
2022/09/19 01:47:58;;;;;;;6.10;1.73;;;;;;;17.23;49.99;101612.06;4904121;29;20045;-64
2022/09/19 01:50:26;;;;;;;5.25;1.90;;;;;;;17.21;51.06;101611.38;4928624;29;20032;-64
2022/09/19 01:53:07;;;;;;;3.08;1.73;;;;;;;17.20;49.67;101617.78;4912853;29;20032;-64
2022/09/19 01:55:55;;;;;;;8.25;1.90;;;;;;;17.18;49.84;101608.97;4913209;29;20036;-64
2022/09/19 01:58:51;;;;;;;5.43;1.80;;;;;;;17.18;51.21;101610.81;4948024;28;20041;-64
2022/09/19 02:01:22;;;;;;;8.82;1.70;;;;;;;17.16;51.18;101602.88;4974730;28;20050;-64
2022/09/19 02:04:12;;;;;;;2.72;1.55;;;;;;;17.19;50.07;101607.13;4987185;28;20022;-64
2022/09/19 02:06:58;;;;;;;2.67;1.55;;;;;;;17.19;50.55;101613.41;4987261;28;20031;-64
2022/09/19 02:09:38;;;;;;;6.10;1.92;;;;;;;17.15;49.64;101600.28;4988081;28;20015;-65
2022/09/19 02:12:05;;;;;;;5.68;1.58;;;;;;;17.18;50.78;101600.84;4987184;28;20440;-64
2022/09/19 02:14:33;;;;;;;4.30;1.67;;;;;;;17.17;50.18;101604.56;4986681;28;20034;-64
2022/09/19 02:17:04;;;;;;;9.07;2.05;;;;;;;17.16;50.44;101613.69;4970693;28;20031;-64
2022/09/19 02:19:33;;;;;;;4.75;1.58;;;;;;;17.15;50.38;101611.13;4989911;28;20050;-64
2022/09/19 02:22:07;;;;;;;9.77;1.73;;;;;;;17.13;50.28;101605.88;4973878;28;20030;-64
2022/09/19 02:24:35;;;;;;;2.75;1.60;;;;;;;17.15;50.14;101613.84;4974135;28;20035;-64
2022/09/19 02:27:09;;;;;;;1.73;1.30;;;;;;;17.13;50.78;101615.84;4990618;28;20039;-64
2022/09/19 02:29:36;;;;;;;5.72;1.55;;;;;;;17.11;50.64;101616.00;4990193;28;20030;-65
2022/09/19 02:32:02;;;;;;;4.32;1.40;;;;;;;17.12;50.35;101616.84;4989568;28;20027;-63
2022/09/19 02:34:28;;;;;;;4.53;1.38;;;;;;;17.12;51.21;101622.25;4989034;28;20039;-64
2022/09/19 02:37:00;;;;;;;1.33;1.02;;;;;;;17.12;50.04;101627.66;4989510;28;20116;-64
2022/09/19 02:39:32;;;;;;;3.35;1.15;;;;;;;17.11;50.00;101626.84;4989911;28;20023;-64
2022/09/19 02:42:04;;;;;;;5.32;1.25;;;;;;;17.10;50.67;101624.28;4990147;28;20033;-64
2022/09/19 02:44:43;;;;;;;2.40;1.15;;;;;;;17.10;49.85;101624.28;4989067;28;20514;-63
2022/09/19 02:47:26;;;;;;;3.28;1.25;;;;;;;17.10;50.77;101629.69;4990812;28;20030;-64
2022/09/19 02:50:30;;;;;;;6.25;1.27;;;;;;;17.09;50.66;101627.97;4973069;28;20115;-64
2022/09/19 02:52:56;;;;;;;5.72;1.45;;;;;;;17.07;50.67;101619.16;4949329;29;20042;-64
2022/09/19 02:55:26;;;;;;;5.80;1.50;;;;;;;17.07;49.54;101630.84;4918141;29;20028;-64
2022/09/19 02:57:55;;;;;;;3.92;1.13;;;;;;;17.06;49.85;101628.28;4944260;28;20035;-64
2022/09/19 03:00:21;;;;;;;6.32;1.05;;;;;;;17.05;50.86;101626.59;4988573;28;20107;-64
2022/09/19 03:02:56;;;;;;;3.30;1.02;;;;;;;17.04;49.83;101630.28;4988487;28;20058;-64
2022/09/19 03:05:25;;;;;;;8.73;1.25;;;;;;;17.04;50.22;101630.28;4973237;28;20034;-64
2022/09/19 03:08:04;;;;;;;4.13;1.02;;;;;;;17.06;50.36;101636.41;4973008;28;20030;-64
2022/09/19 03:10:33;;;;;;;3.70;1.30;;;;;;;17.07;50.81;101635.41;4972231;28;20033;-64
2022/09/19 03:13:02;;;;;;;5.45;1.33;;;;;;;17.06;50.44;101636.41;4972234;28;20027;-64
2022/09/19 03:15:56;;;;;;;11.40;2.40;;;;;;;17.07;49.98;101636.25;4987754;28;20037;-64
2022/09/19 03:18:23;;;;;;;5.05;0.93;;;;;;;17.06;49.87;101641.81;4989021;28;20484;-64
2022/09/19 03:20:53;;;;;;;1.35;0.82;;;;;;;17.04;49.91;101633.00;4988270;28;20023;-64
2022/09/19 03:23:26;;;;;;;6.22;1.00;;;;;;;17.06;49.87;101634.53;4972080;28;20455;-64
2022/09/19 03:25:52;;;;;;;3.97;1.35;;;;;;;17.07;50.16;101640.81;4987324;28;20026;-64
2022/09/19 03:28:19;;;;;;;5.88;1.33;;;;;;;17.04;51.12;101630.28;4971874;28;20026;-63
2022/09/19 03:30:48;;;;;;;4.70;1.15;;;;;;;17.11;50.40;101639.53;4988688;28;20026;-64
2022/09/19 03:33:15;;;;;;;3.88;1.42;;;;;;;17.12;50.03;101633.09;4987988;28;20069;-64
2022/09/19 03:35:46;;;;;;;3.58;0.82;;;;;;;17.05;50.17;101634.72;4987604;28;20026;-65
2022/09/19 03:38:12;;;;;;;5.40;0.90;;;;;;;17.13;50.63;101642.91;4987855;28;20186;-64
2022/09/19 03:40:37;;;;;;;1.10;0.65;;;;;;;17.14;50.07;101636.50;4986875;28;20055;-64
2022/09/19 03:43:04;;;;;;;4.97;1.45;;;;;;;17.15;50.06;101649.03;4970433;28;20058;-64
2022/09/19 03:45:29;;;;;;;2.05;0.90;;;;;;;17.15;49.84;101644.47;4988813;28;20031;-64
2022/09/19 03:47:55;;;;;;;11.52;1.67;;;;;;;17.15;50.38;101646.31;4988042;28;20030;-64
2022/09/19 03:50:20;;;;;;;2.83;1.15;;;;;;;17.12;50.74;101638.50;4987595;28;20038;-64
2022/09/19 03:52:47;;;;;;;4.93;1.35;;;;;;;17.14;49.50;101644.63;4987087;28;20023;-64
2022/09/19 03:55:13;;;;;;;4.63;1.23;;;;;;;17.16;50.71;101653.44;4987822;28;20140;-64
2022/09/19 03:57:38;;;;;;;4.05;0.98;;;;;;;17.16;50.19;101639.91;4970924;28;20062;-64
2022/09/19 04:00:04;;;;;;;3.00;1.10;;;;;;;17.16;49.82;101648.03;4971466;28;20481;-64
2022/09/19 04:02:30;;;;;;;2.67;0.70;;;;;;;17.19;49.75;101650.44;4971412;28;20031;-64
2022/09/19 04:04:55;;;;;;;4.45;1.02;;;;;;;17.18;50.74;101643.31;4987706;28;20094;-63
2022/09/19 04:07:21;;;;;;;4.95;1.15;;;;;;;17.20;49.59;101655.69;4987704;28;20125;-64
2022/09/19 04:09:46;;;;;;;4.90;1.15;;;;;;;17.21;50.10;101653.84;4970866;28;20023;-64
2022/09/19 04:12:12;;;;;;;2.65;0.73;;;;;;;17.20;50.71;101646.72;4986668;28;20022;-63
2022/09/19 04:14:38;;;;;;;1.75;0.52;;;;;;;17.23;49.86;101649.13;4987083;28;20051;-64
2022/09/19 04:17:06;;;;;;;3.22;1.95;;;;;;;17.23;50.77;101651.81;4954912;28;20030;-64
2022/09/19 04:19:32;;;;;;;6.10;0.80;;;;;;;17.24;49.98;101664.38;4987030;28;20093;-63
2022/09/19 04:22:01;;;;;;;2.03;0.80;;;;;;;17.21;50.11;101648.44;4987465;28;20031;-63
2022/09/19 04:24:29;;;;;;;2.53;0.93;;;;;;;17.22;50.30;101647.44;4971492;28;20027;-63
2022/09/19 04:26:54;;;;;;;2.47;0.75;;;;;;;17.22;50.20;101666.38;4986344;28;20031;-64
2022/09/19 04:29:20;;;;;;;1.10;1.00;;;;;;;17.22;50.49;101666.38;4986113;28;20026;-64
2022/09/19 04:31:46;;;;;;;7.30;0.95;;;;;;;17.22;50.00;101660.97;4986998;28;20031;-65
2022/09/19 04:34:14;;;;;;;3.65;0.88;;;;;;;17.21;50.60;101662.81;4987781;28;20037;-64
2022/09/19 04:36:41;;;;;;;3.40;0.85;;;;;;;17.19;49.88;101661.28;4986172;28;20484;-64
2022/09/19 04:39:06;;;;;;;6.72;1.40;;;;;;;17.18;50.53;101664.97;4987441;28;20038;-64
2022/09/19 04:41:34;;;;;;;4.22;0.55;;;;;;;17.13;50.29;101667.28;4988286;28;20027;-64
2022/09/19 04:44:00;;;;;;;1.80;0.65;;;;;;;17.14;50.19;101663.59;4971813;28;20042;-64
2022/09/19 04:46:26;;;;;;;2.60;1.38;;;;;;;17.14;49.87;101669.00;4987461;28;20027;-64
2022/09/19 04:48:54;;;;;;;2.85;0.70;;;;;;;17.13;50.69;101678.13;4970896;28;20018;-65
2022/09/19 04:51:20;;;;;;;3.10;0.82;;;;;;;17.11;49.10;101686.41;4988797;28;20112;-64
2022/09/19 04:53:46;;;;;;;10.45;1.20;;;;;;;17.07;50.70;101685.00;4988584;28;20032;-64
2022/09/19 04:56:11;;;;;;;2.05;0.88;;;;;;;17.05;49.59;101684.28;4987472;28;20058;-64
2022/09/19 04:58:40;;;;;;;5.65;1.23;;;;;;;17.02;49.06;101684.59;4986920;28;20401;-64
2022/09/19 05:01:06;;;;;;;5.47;0.90;;;;;;;17.01;49.50;101690.13;4986741;28;20094;-64
2022/09/19 05:03:31;;;;;;;8.35;0.80;;;;;;;16.98;50.42;101694.00;4986473;28;20041;-64
2022/09/19 05:05:58;;;;;;;5.22;1.08;;;;;;;16.96;49.74;101679.78;4986494;28;20019;-64
2022/09/19 05:08:27;;;;;;;6.20;0.93;;;;;;;16.96;50.75;101696.00;4986744;28;20380;-64
2022/09/19 05:10:58;;;;;;;1.58;0.77;;;;;;;16.96;50.39;101697.84;4986224;28;20033;-64
2022/09/19 05:13:28;;;;;;;4.00;1.50;;;;;;;16.95;49.72;101691.59;4969821;28;20030;-64
2022/09/19 05:15:54;;;;;;;5.78;0.90;;;;;;;16.95;50.46;101698.84;4986889;28;20469;-64
2022/09/19 05:18:21;;;;;;;2.55;0.60;;;;;;;16.94;49.67;101694.47;4986442;28;20074;-64
2022/09/19 05:20:47;;;;;;;6.22;1.27;;;;;;;16.97;50.85;101697.72;4970419;28;20050;-64
2022/09/19 05:23:13;;;;;;;6.88;0.90;;;;;;;16.96;50.59;101698.72;4986496;28;20022;-64
2022/09/19 05:25:40;;;;;;;5.35;0.60;;;;;;;16.97;50.31;101699.56;4986444;28;20098;-64
2022/09/19 05:28:06;;;;;;;2.42;0.50;;;;;;;16.97;50.45;101699.56;4985998;28;20022;-64
2022/09/19 05:30:33;;;;;;;5.40;1.08;;;;;;;17.00;49.65;101702.00;4986342;28;20058;-64
2022/09/19 05:32:59;;;;;;;1.45;0.80;;;;;;;17.03;51.01;101707.94;4970224;28;20166;-64
2022/09/19 05:35:25;;;;;;;10.48;1.17;;;;;;;17.06;49.97;101715.75;4986662;28;20031;-65
2022/09/19 05:37:51;;;;;;;1.25;0.70;;;;;;;17.10;50.30;101716.31;4987037;28;20019;-64
2022/09/19 05:40:17;;;;;;;3.10;1.08;;;;;;;17.12;50.44;101719.72;4987097;28;20029;-64
2022/09/19 05:42:43;;;;;;;3.40;1.00;;;;;;;17.12;50.73;101717.00;4986291;28;20031;-64
2022/09/19 05:45:10;;;;;;;2.72;1.05;;;;;;;17.16;50.91;101729.25;4987692;28;20069;-64
2022/09/19 05:47:39;;;;;;;4.88;0.90;;;;;;;17.19;49.90;101731.69;4986120;28;20114;-64
2022/09/19 05:50:09;;;;;;;3.65;1.17;;;;;;;17.21;50.56;101718.84;4969444;28;20023;-65
2022/09/19 05:55:20;;;;;;;4.13;1.30;;;;;;;17.21;49.84;101727.81;4985133;28;20082;-64
2022/09/19 05:57:53;;;;;;;4.93;1.00;;;;;;;17.26;50.37;101732.78;4985257;28;20034;-65
2022/09/19 06:00:20;;;;;;;8.77;1.45;;;;;;;17.34;50.07;101722.03;4985250;28;20101;-65
2022/09/19 06:02:55;;;;;;;2.45;1.05;;;;;;;17.48;49.93;101726.94;4984097;28;20027;-64
2022/09/19 06:05:22;;;;;;;3.83;1.15;;;;;;;17.63;48.76;101735.44;4968410;28;20027;-64
2022/09/19 06:07:47;;;;;;;8.25;1.05;;;;;;;17.75;49.73;101724.25;4966842;28;20500;-64
2022/09/19 06:10:13;;;;;;;5.53;1.13;;;;;;;17.95;49.80;101741.22;4982240;28;20030;-64
2022/09/19 06:12:38;;;;;;;5.22;1.13;;;;;;;18.09;49.49;101731.69;4981473;28;20029;-64
2022/09/19 06:15:04;;;;;;;4.13;1.75;;;;;;;18.22;49.11;101729.41;4964838;28;20058;-64
2022/09/19 06:17:30;;;;;;;3.05;0.95;;;;;;;18.50;49.34;101741.91;4981682;28;20031;-64
2022/09/19 06:19:55;;;;;;;2.70;1.23;;;;;;;18.67;49.04;101741.00;4964724;28;20121;-64
2022/09/19 06:22:21;;;;;;;4.93;1.33;;;;;;;18.87;49.08;101750.63;4964660;28;20035;-64
2022/09/19 06:24:46;;;;;;;5.13;1.33;;;;;;;19.08;48.98;101753.81;4981250;28;20599;-64
2022/09/19 06:27:11;;;;;;;3.47;1.27;;;;;;;19.24;48.88;101749.44;4982088;28;20054;-65
2022/09/19 06:29:37;;;;;;;5.53;0.90;;;;;;;19.39;48.38;101753.31;4981890;28;20025;-64
2022/09/19 06:32:02;;;;;;;4.15;1.20;;;;;;;19.41;48.61;101753.97;4965861;28;20070;-65
2022/09/19 06:34:28;;;;;;;7.22;1.65;;;;;;;19.61;49.00;101760.84;4950800;28;20033;-64
2022/09/19 06:36:53;;;;;;;3.63;1.25;;;;;;;19.80;48.43;101766.00;4982622;28;20034;-64
2022/09/19 06:39:18;;;;;;;4.82;1.00;;;;;;;19.91;48.83;101762.97;4982941;28;20404;-64
2022/09/19 06:41:47;;;;;;;6.63;1.13;;;;;;;20.06;48.52;101766.75;4983556;28;20035;-65
2022/09/19 06:44:12;;;;;;;2.75;1.08;;;;;;;20.03;48.84;101761.66;4967950;28;20039;-64
2022/09/19 06:46:38;;;;;;;8.77;2.00;;;;;;;20.25;48.43;101766.47;4967491;28;20038;-65
2022/09/19 06:49:03;;;;;;;7.93;0.80;;;;;;;20.29;48.46;101770.56;4983719;28;20018;-64
2022/09/19 06:51:30;;;;;;;3.22;0.88;;;;;;;20.35;48.23;101776.34;4983825;28;20066;-64
2022/09/19 06:53:55;;;;;;;4.80;0.98;;;;;;;20.22;48.47;101777.66;4983735;28;20060;-64
2022/09/19 06:56:20;;;;;;;6.85;1.30;;;;;;;20.17;48.94;101774.59;4983905;28;20123;-64
2022/09/19 06:58:46;;;;;;;4.30;1.00;;;;;;;20.25;48.30;101780.06;4985275;28;20042;-65
2022/09/19 07:01:12;;;;;;;5.72;1.23;;;;;;;20.17;48.20;101782.75;4984074;28;20137;-65
2022/09/19 07:03:39;;;;;;;3.97;1.20;;;;;;;20.13;48.45;101784.09;4985092;28;20037;-64
2022/09/19 07:06:04;;;;;;;8.63;1.13;;;;;;;20.10;48.54;101787.13;4988747;28;20026;-65
2022/09/19 07:08:30;;;;;;;6.50;1.38;;;;;;;20.21;48.23;101789.53;4988602;28;20033;-65
2022/09/19 07:10:56;;;;;;;5.75;1.10;;;;;;;20.53;47.54;101787.91;4987744;28;20026;-64
2022/09/19 07:13:22;;;;;;;5.85;1.20;;;;;;;20.75;47.14;101789.91;4971275;28;20018;-65
2022/09/19 07:15:47;;;;;;;3.25;1.08;;;;;;;20.72;47.64;101790.25;4971851;28;20061;-64
2022/09/19 07:18:13;;;;;;;2.25;0.90;;;;;;;20.78;47.40;101795.03;4971870;28;20030;-64
2022/09/19 07:20:38;;;;;;;2.78;1.20;;;;;;;21.11;47.07;101791.25;4987031;28;20535;-64
2022/09/19 07:23:15;;;;;;;9.38;1.10;;;;;;;21.35;46.93;101793.94;4987164;28;20476;-64
2022/09/19 07:25:42;;;;;;;6.45;1.17;;;;;;;21.58;46.48;101798.63;4986925;28;20049;-64
2022/09/19 07:28:13;;;;;;;10.43;2.03;;;;;;;21.81;46.97;101796.78;4972060;28;20038;-64
2022/09/19 07:30:39;;;;;;;6.05;1.48;;;;;;;21.98;46.45;101806.59;4987238;28;20473;-65
2022/09/19 07:33:07;;;;;;;2.83;1.23;;;;;;;22.26;46.48;101799.59;4971944;28;20034;-65
2022/09/19 07:35:35;;;;;;;8.35;1.30;;;;;;;22.72;46.19;101805.94;4986155;28;20022;-65
2022/09/19 07:38:01;;;;;;;7.03;1.52;;;;;;;22.87;46.12;101801.31;4986759;28;20022;-64
2022/09/19 07:40:26;;;;;;;7.43;1.17;;;;;;;23.00;45.66;101803.44;4970416;28;20026;-64
2022/09/19 07:42:51;;;;;;;4.75;0.95;;;;;;;22.95;45.42;101811.31;4971755;28;20029;-64
2022/09/19 07:45:17;;;;;;;8.88;1.10;;;;;;;22.96;45.78;101807.56;4987757;28;20168;-65
2022/09/19 07:47:47;;;;;;;3.03;1.60;;;;;;;22.85;46.38;101816.22;4988634;28;20031;-64
2022/09/19 07:50:16;;;;;;;5.03;0.98;;;;;;;22.75;46.14;101816.50;4988113;28;20038;-65
2022/09/19 07:52:48;;;;;;;4.20;0.80;;;;;;;22.67;46.25;101823.91;4989319;28;20034;-64
2022/09/19 07:55:14;;;;;;;5.90;1.00;;;;;;;22.55;46.03;101824.31;4974552;28;20027;-65
2022/09/19 07:57:49;;;;;;;9.70;1.20;;;;;;;22.44;45.75;101819.28;4973845;28;20058;-64
2022/09/19 08:00:15;;;;;;;4.93;0.65;;;;;;;22.35;45.58;101817.63;4974055;28;20066;-65
2022/09/19 08:02:40;;;;;;;5.75;1.25;;;;;;;22.28;46.10;101830.28;4991227;28;20031;-65
2022/09/19 08:05:06;;;;;;;3.55;1.10;;;;;;;22.24;46.83;101828.13;4990795;28;20027;-64
2022/09/19 08:07:31;;;;;;;5.40;1.17;;;;;;;22.19;46.41;101836.84;4990571;28;20034;-64
2022/09/19 08:09:56;;;;;;;3.85;0.90;;;;;;;22.17;46.58;101841.63;4990817;28;20034;-64
2022/09/19 08:12:22;;;;;;;3.40;0.93;;;;;;;22.13;45.81;101845.75;4990795;28;20041;-65
2022/09/19 08:14:48;;;;;;;5.00;1.25;;;;;;;22.10;45.96;101850.72;4974214;28;20058;-65
2022/09/19 08:17:14;;;;;;;3.33;1.45;;;;;;;22.08;45.94;101840.00;4989678;28;20027;-65
2022/09/19 08:19:39;;;;;;;4.43;1.00;;;;;;;22.07;46.01;101848.34;4974403;28;20022;-65
2022/09/19 08:22:05;;;;;;;4.60;0.80;;;;;;;22.08;46.52;101853.63;4990451;28;20066;-64
2022/09/19 08:24:31;;;;;;;1.75;0.88;;;;;;;22.06;46.05;101855.66;4991780;28;20038;-64
2022/09/19 08:26:58;;;;;;;7.47;1.23;;;;;;;22.06;46.28;101852.94;4991287;28;20033;-65
2022/09/19 08:29:26;;;;;;;7.38;1.63;;;;;;;22.09;46.32;101851.72;4990684;28;20050;-64
2022/09/19 08:31:51;;;;;;;4.78;0.85;;;;;;;22.13;46.36;101856.69;4974311;28;20034;-64
2022/09/19 08:34:17;;;;;;;4.30;1.08;;;;;;;22.22;46.27;101863.75;4990149;28;20022;-64
2022/09/19 08:36:42;;;;;;;4.53;1.50;;;;;;;22.30;46.31;101866.47;4991197;28;20094;-65
2022/09/19 08:39:08;;;;;;;6.78;0.88;;;;;;;22.52;45.15;101859.31;4990995;28;20023;-65
2022/09/19 08:41:45;;;;;;;3.45;0.82;;;;;;;22.73;45.64;101866.84;4991133;28;20050;-65
2022/09/19 08:44:23;;;;;;;5.60;1.05;;;;;;;22.95;45.29;101865.97;4989676;28;20385;-64
2022/09/19 08:47:06;;;;;;;9.85;1.15;;;;;;;23.03;44.66;101863.19;4989655;28;20117;-65
2022/09/19 08:49:43;;;;;;;7.97;1.58;;;;;;;23.11;45.03;101863.97;4990933;28;20025;-64
2022/09/19 08:52:29;;;;;;;5.28;1.00;;;;;;;23.20;45.12;101865.56;4990459;28;20082;-64
2022/09/19 08:54:54;;;;;;;8.43;1.00;;;;;;;23.25;44.95;101872.38;4990374;28;20023;-65
2022/09/19 08:57:25;;;;;;;3.33;0.73;;;;;;;23.37;44.58;101866.25;4990082;28;20058;-65
2022/09/19 08:59:52;;;;;;;4.38;0.90;;;;;;;23.50;44.62;101866.50;4989316;28;20029;-65
2022/09/19 09:02:35;;;;;;;5.45;1.05;;;;;;;23.60;44.30;101867.06;4974001;28;20042;-64
2022/09/19 09:05:00;;;;;;;3.15;1.13;;;;;;;23.70;44.72;101862.13;4989320;28;20035;-64
2022/09/19 09:07:45;;;;;;;6.53;0.95;;;;;;;23.85;43.94;101869.47;4972972;28;20041;-64
2022/09/19 09:10:41;;;;;;;5.63;0.95;;;;;;;23.96;43.75;101874.47;4990700;28;20034;-64
2022/09/19 09:13:41;;;;;;;7.07;1.05;;;;;;;24.04;44.14;101871.63;4990145;28;20484;-64
2022/09/19 09:16:12;;;;;;;2.72;0.73;;;;;;;24.11;44.31;101864.38;4991605;28;20015;-65
2022/09/19 09:18:59;;;;;;;4.68;0.70;;;;;;;24.16;43.54;101879.19;4990805;28;20027;-65
2022/09/19 09:22:06;;;;;;;6.25;1.20;;;;;;;24.27;43.87;101870.47;4991629;28;20425;-65
2022/09/19 09:24:36;;;;;;;4.60;1.27;;;;;;;24.33;43.75;101874.34;4946738;28;20030;-64
2022/09/19 09:27:05;;;;;;;3.92;0.65;;;;;;;24.43;43.56;101874.84;4974625;28;20023;-65
2022/09/19 09:29:37;;;;;;;3.72;1.10;;;;;;;24.63;43.50;101877.81;4990504;28;20058;-64
2022/09/19 09:32:13;;;;;;;8.80;1.20;;;;;;;25.17;42.10;101875.38;4974560;28;20098;-64
2022/09/19 09:34:44;;;;;;;4.22;0.90;;;;;;;25.48;41.98;101875.88;4992234;28;20027;-64
2022/09/19 09:37:20;;;;;;;10.68;1.05;;;;;;;25.63;41.95;101873.81;4975481;28;20098;-65
2022/09/19 09:41:44;;;;;;;7.20;0.90;;;;;;;25.87;41.79;101870.59;4975542;28;20476;-64
2022/09/19 09:42:47;;;;;;;4.93;0.80;;;;;;;25.92;41.41;101870.81;4991039;28;20049;-65
2022/09/19 09:45:33;;;;;;;;;;;;;;;26.08;41.62;101871.50;4991657;28;20058;-64
2022/09/19 09:48:34;;;;;;;4.68;1.00;;;;;;;26.27;41.19;101865.28;4992405;28;19938;-65
2022/09/19 09:51:08;;;;;;;9.35;1.30;;;;;;;26.38;41.83;101870.19;4984267;28;20045;-64
2022/09/19 09:53:52;;;;;;;5.20;1.10;;;;;;;26.36;41.36;101875.03;4993297;28;20038;-65
2022/09/19 09:56:35;;;;;;;3.70;0.93;;;;;;;26.49;40.79;101869.59;4992629;28;20095;-65
2022/09/19 10:05:30;;;;;;;6.75;0.93;;;;;;;27.54;40.24;101864.13;4993631;28;20042;-65
2022/09/19 10:08:18;;;;;;;3.28;0.90;;;;;;;27.74;39.40;101860.25;4977362;28;20030;-66
2022/09/19 10:10:44;;;;;;;4.03;0.82;;;;;;;27.62;39.83;101862.00;4977164;28;20026;-66
2022/09/19 10:13:09;;;;;;;6.50;0.88;;;;;;;27.94;38.93;101867.59;4993135;28;20027;-66
2022/09/19 10:15:39;;;;;;;3.00;1.15;;;;;;;29.25;38.00;101867.66;4994329;28;20010;-67
2022/09/19 10:18:09;;;;;;;2.10;0.80;;;;;;;29.87;36.78;101860.22;4994616;28;20007;-66
2022/09/19 10:20:38;;;;;;;5.38;1.10;;;;;;;29.51;37.94;101862.94;4994484;28;20007;-68
2022/09/19 10:23:04;;;;;;;3.58;0.70;;;;;;;29.79;37.86;101855.81;4993992;28;20051;-66
2022/09/19 10:25:30;;;;;;;7.55;0.93;;;;;;;30.77;36.41;101853.63;4978573;28;20026;-66
2022/09/19 10:28:01;;;;;;;3.80;1.05;;;;;;;30.32;36.62;101856.00;4994935;28;20030;-66
2022/09/19 10:30:33;;;;;;;6.07;1.65;;;;;;;30.11;36.84;101853.75;4978322;28;20026;-68
2022/09/19 10:33:17;;;;;;;2.87;0.93;;;;;;;30.92;35.87;101855.94;4994749;28;20025;-68
2022/09/19 10:35:45;;;;;;;4.85;0.80;;;;;;;31.33;35.55;101855.03;4994679;28;20296;-67
2022/09/19 10:38:13;;;;;;;5.88;1.13;;;;;;;32.13;35.20;101853.28;4996272;28;20031;-66
2022/09/19 10:40:54;;;;;;;4.60;0.90;;;;;;;31.33;35.35;101842.03;4999376;28;20033;-67
2022/09/19 10:43:26;;;;;;;3.65;1.10;;;;;;;31.95;34.44;101856.19;4982690;28;20079;-67
2022/09/19 10:45:51;;;;;;;4.10;0.77;;;;;;;32.61;33.29;101850.88;4999394;28;20062;-68
2022/09/19 10:48:22;;;;;;;5.63;0.75;;;;;;;33.09;33.81;101847.56;4999843;28;20027;-67
2022/09/19 10:50:48;;;;;;;5.40;1.15;;;;;;;33.29;32.68;101845.13;4999887;28;20023;-68
2022/09/19 10:53:22;;;;;;;6.47;1.05;;;;;;;33.78;32.37;101840.53;4983769;28;20034;-68
2022/09/19 10:55:48;;;;;;;4.28;0.88;;;;;;;34.33;32.62;101847.91;4983820;28;20015;-66
2022/09/19 10:58:19;;;;;;;3.50;0.95;;;;;;;33.86;32.10;101840.13;4999810;28;20051;-67
2022/09/19 11:00:51;;;;;;;5.88;0.90;;;;;;;34.37;31.44;101838.75;4942603;28;1189644;-67
2022/09/19 11:03:26;;;;;;;8.40;1.15;;;;;;;34.75;31.59;101832.22;5002378;28;20019;-67
2022/09/19 11:06:03;;;;;;;2.20;0.60;;;;;;;35.16;30.76;101835.34;5001938;28;20022;-65
2022/09/19 11:08:30;;;;;;;1.70;0.68;;;;;;;34.46;31.29;101830.78;5002208;28;20027;-67
2022/09/19 11:10:56;;;;;;;4.05;0.82;;;;;;;34.54;30.81;101816.38;5001823;28;20018;-66
2022/09/19 11:13:22;;;;;;;2.60;0.70;;;;;;;34.16;31.47;101825.75;5001478;28;20031;-67
2022/09/19 11:16:16;;;;;;;3.08;0.70;;;;;;;34.27;30.18;101816.41;4969386;28;20034;-65
2022/09/19 11:19:06;;;;;;;5.38;1.08;;;;;;;33.73;31.81;101815.47;4985589;28;20396;-67
2022/09/19 11:21:53;;;;;;;4.18;0.95;;;;;;;34.29;30.64;101819.75;5001475;28;20029;-66
2022/09/19 11:24:28;;;;;;;5.15;0.82;;;;;;;34.65;29.79;101818.19;5001154;28;20027;-66
2022/09/19 11:27:14;;;;;;;10.95;0.80;;;;;;;34.94;29.83;101811.19;5001262;28;20045;-66
2022/09/19 11:29:54;;;;;;;4.20;0.55;;;;;;;35.27;29.29;101803.63;5001832;28;20086;-68
2022/09/19 11:32:37;;;;;;;5.03;0.77;;;;;;;35.38;29.03;101800.66;5001883;28;20029;-67
2022/09/19 11:35:07;;;;;;;4.50;0.82;;;;;;;35.54;28.80;101807.16;5000872;28;20037;-66
2022/09/19 11:38:07;;;;;;;3.97;1.23;;;;;;;35.77;28.57;101795.56;5001627;28;20106;-66
2022/09/19 11:40:57;;;;;;;7.07;0.93;;;;;;;35.82;28.78;101797.53;5001275;28;20027;-67
2022/09/19 11:43:44;;;;;;;2.40;0.75;;;;;;;35.81;28.29;101787.47;5000949;28;20031;-67
2022/09/19 11:46:26;;;;;;;5.10;0.75;;;;;;;35.88;27.58;101794.47;5001017;28;20030;-67
2022/09/19 11:49:07;;;;;;;4.03;0.90;;;;;;;35.99;28.10;101801.75;5000796;28;20046;-67
2022/09/19 11:51:45;;;;;;;1.90;0.88;;;;;;;36.02;27.83;101795.66;5000253;28;20026;-68
2022/09/19 11:54:44;;;;;;;6.55;1.02;;;;;;;35.07;28.52;101798.78;5001223;28;20046;-67